createdAt,value
2023-05-16T00:00:38.246Z,11.69
2023-05-16T00:03:07.679Z,11.60
2023-05-16T00:05:36.206Z,11.58
2023-05-16T00:08:04.196Z,11.55
2023-05-16T00:10:32.105Z,11.54
2023-05-16T00:13:02.165Z,11.41
2023-05-16T00:15:30.885Z,11.33
2023-05-16T00:17:59.499Z,11.28
2023-05-16T00:20:30.444Z,11.24
2023-05-16T00:23:01.295Z,11.12
2023-05-16T00:25:29.704Z,11.06
2023-05-16T00:27:58.044Z,11.04
2023-05-16T00:30:26.185Z,10.89
2023-05-16T00:32:56.501Z,10.68
2023-05-16T00:35:24.669Z,10.70
2023-05-16T00:37:53.966Z,10.60
2023-05-16T00:40:21.972Z,10.46
2023-05-16T00:42:49.978Z,10.29
2023-05-16T00:45:17.905Z,10.17
2023-05-16T00:47:45.897Z,10.21
2023-05-16T00:50:13.958Z,10.18
2023-05-16T00:52:42.261Z,10.23
2023-05-16T00:55:11.926Z,10.26
2023-05-16T00:57:41.267Z,10.19
2023-05-16T01:00:10.794Z,10.13
2023-05-16T01:02:39.563Z,10.15
2023-05-16T01:05:08.565Z,10.06
2023-05-16T01:07:36.756Z,10.01
2023-05-16T01:10:06.656Z,9.96
2023-05-16T01:12:43.036Z,9.80
2023-05-16T01:15:14.621Z,9.76
2023-05-16T01:17:54.542Z,9.67
2023-05-16T01:20:34.709Z,9.58
2023-05-16T01:23:27.882Z,9.56
2023-05-16T01:26:01.251Z,9.52
2023-05-16T01:28:31.655Z,9.45
2023-05-16T01:31:00.357Z,9.46
2023-05-16T01:33:28.335Z,9.47
2023-05-16T01:36:04.936Z,9.54
2023-05-16T01:38:41.882Z,9.52
2023-05-16T01:41:17.390Z,9.45
2023-05-16T01:43:50.686Z,9.36
2023-05-16T01:46:30.014Z,9.26
2023-05-16T01:49:05.895Z,9.30
2023-05-16T01:51:34.634Z,9.23
2023-05-16T01:54:09.750Z,9.21
2023-05-16T01:56:39.072Z,9.14
2023-05-16T01:59:09.961Z,9.18
2023-05-16T02:01:38.033Z,9.11
2023-05-16T02:04:06.279Z,8.98
2023-05-16T02:06:34.311Z,8.94
2023-05-16T02:09:02.243Z,8.88
2023-05-16T02:11:30.151Z,8.89
2023-05-16T02:13:58.132Z,8.94
2023-05-16T02:16:27.466Z,8.99
2023-05-16T02:18:55.542Z,8.93
2023-05-16T02:21:23.475Z,8.89
2023-05-16T02:23:51.373Z,8.86
2023-05-16T02:26:19.390Z,8.85
2023-05-16T02:28:49.542Z,8.89
2023-05-16T02:31:28.885Z,8.84
2023-05-16T02:33:56.979Z,8.85
2023-05-16T02:36:25.128Z,8.83
2023-05-16T02:38:53.288Z,8.87
2023-05-16T02:41:22.363Z,8.91
2023-05-16T02:43:50.590Z,8.89
2023-05-16T02:46:25.382Z,8.96
2023-05-16T02:48:55.007Z,9.00
2023-05-16T02:51:24.436Z,9.03
2023-05-16T02:53:52.921Z,9.08
2023-05-16T02:56:21.868Z,9.15
2023-05-16T02:58:51.326Z,9.20
2023-05-16T03:01:19.425Z,9.26
2023-05-16T03:03:47.599Z,9.30
2023-05-16T03:06:16.979Z,9.32
2023-05-16T03:08:44.925Z,9.26
2023-05-16T03:11:12.884Z,9.20
2023-05-16T03:13:41.755Z,9.21
2023-05-16T03:16:09.733Z,9.21
2023-05-16T03:18:37.734Z,9.14
2023-05-16T03:21:06.227Z,9.09
2023-05-16T03:23:35.627Z,9.11
2023-05-16T03:26:03.613Z,9.13
2023-05-16T03:28:31.731Z,9.21
2023-05-16T03:31:00.409Z,9.21
2023-05-16T03:33:28.105Z,9.18
2023-05-16T03:35:56.068Z,9.23
2023-05-16T03:38:23.989Z,9.34
2023-05-16T03:40:53.675Z,9.29
2023-05-16T03:43:21.607Z,9.24
2023-05-16T03:45:49.637Z,9.30
2023-05-16T03:48:17.693Z,9.37
2023-05-16T03:50:45.769Z,9.37
2023-05-16T03:53:13.677Z,9.39
2023-05-16T03:55:41.570Z,9.39
2023-05-16T03:58:10.901Z,9.47
2023-05-16T04:00:38.979Z,9.51
2023-05-16T04:03:06.924Z,9.52
2023-05-16T04:05:34.936Z,9.53
2023-05-16T04:08:02.941Z,9.63
2023-05-16T04:10:30.885Z,9.66
2023-05-16T04:12:58.792Z,9.77
2023-05-16T04:15:28.377Z,9.81
2023-05-16T04:17:56.918Z,9.88
2023-05-16T04:20:24.984Z,9.79
2023-05-16T04:22:53.404Z,9.80
2023-05-16T04:25:21.342Z,9.84
2023-05-16T04:27:49.267Z,9.91
2023-05-16T04:30:17.610Z,9.94
2023-05-16T04:32:47.004Z,10.00
2023-05-16T04:35:15.104Z,10.02
2023-05-16T04:37:43.065Z,10.08
2023-05-16T04:40:13.082Z,10.18
2023-05-16T04:42:41.178Z,10.21
2023-05-16T04:45:11.953Z,10.28
2023-05-16T04:47:40.056Z,10.28
2023-05-16T04:50:10.799Z,10.31
2023-05-16T04:52:39.308Z,10.42
2023-05-16T04:55:08.016Z,10.50
2023-05-16T04:57:35.948Z,10.54
2023-05-16T05:00:08.012Z,10.60
2023-05-16T05:02:39.203Z,10.68
2023-05-16T05:05:09.979Z,10.75
2023-05-16T05:07:38.001Z,10.79
2023-05-16T05:10:07.798Z,10.88
2023-05-16T05:12:37.582Z,10.93
2023-05-16T05:15:06.612Z,11.01
2023-05-16T05:17:34.980Z,11.10
2023-05-16T05:20:06.970Z,11.12
2023-05-16T05:22:36.275Z,11.22
2023-05-16T05:25:04.283Z,11.27
2023-05-16T05:27:33.890Z,11.42
2023-05-16T05:30:01.811Z,11.47
2023-05-16T05:32:29.911Z,11.60
2023-05-16T05:34:57.945Z,11.72
2023-05-16T05:37:25.865Z,11.72
2023-05-16T05:39:55.241Z,11.75
2023-05-16T05:42:23.179Z,11.77
2023-05-16T05:44:51.123Z,11.79
2023-05-16T05:47:19.356Z,11.74
2023-05-16T05:49:47.402Z,11.72
2023-05-16T05:52:15.452Z,11.67
2023-05-16T05:54:43.532Z,11.59
2023-05-16T05:57:13.014Z,11.53
2023-05-16T05:59:41.065Z,11.56
2023-05-16T06:02:09.539Z,11.55
2023-05-16T06:04:37.853Z,11.46
2023-05-16T06:07:06.217Z,11.49
2023-05-16T06:09:34.158Z,11.55
2023-05-16T06:12:02.184Z,11.57
2023-05-16T06:14:31.501Z,11.63
2023-05-16T06:16:59.566Z,11.68
2023-05-16T06:19:27.588Z,11.78
2023-05-16T06:21:55.688Z,11.85
2023-05-16T06:24:24.087Z,12.00
2023-05-16T06:26:52.597Z,12.07
2023-05-16T06:29:20.569Z,12.16
2023-05-16T06:31:50.282Z,12.23
2023-05-16T06:34:21.428Z,12.33
2023-05-16T06:36:49.421Z,12.45
2023-05-16T06:39:17.378Z,12.57
2023-05-16T06:41:45.643Z,12.62
2023-05-16T06:44:13.631Z,12.70
2023-05-16T06:46:41.712Z,12.82
2023-05-16T06:49:11.108Z,12.86
2023-05-16T06:51:39.108Z,12.96
2023-05-16T06:54:07.284Z,13.00
2023-05-16T06:56:35.343Z,13.07
2023-05-16T06:59:03.326Z,13.15
2023-05-16T07:01:31.667Z,13.30
2023-05-16T07:04:00.287Z,13.37
2023-05-16T07:06:29.849Z,13.50
2023-05-16T07:08:57.891Z,13.60
2023-05-16T07:11:25.980Z,13.73
2023-05-16T07:13:53.972Z,13.85
2023-05-16T07:16:22.703Z,14.01
2023-05-16T07:18:50.816Z,14.20
2023-05-16T07:21:18.879Z,14.31
2023-05-16T07:23:48.360Z,14.37
2023-05-16T07:26:16.556Z,14.42
2023-05-16T07:28:44.592Z,14.51
2023-05-16T07:31:12.638Z,14.51
2023-05-16T07:33:40.873Z,14.49
2023-05-16T07:38:43.178Z,14.55
2023-05-16T07:41:12.696Z,14.42
2023-05-16T07:43:40.701Z,14.39
2023-05-16T07:46:08.829Z,14.42
2023-05-16T07:48:37.165Z,14.45
2023-05-16T07:51:05.319Z,14.54
2023-05-16T07:53:33.268Z,14.63
2023-05-16T07:56:01.382Z,14.76
2023-05-16T07:58:30.875Z,14.88
2023-05-16T08:00:59.104Z,15.06
2023-05-16T08:03:27.297Z,15.25
2023-05-16T08:05:55.370Z,15.30
2023-05-16T08:08:23.515Z,15.49
2023-05-16T08:10:51.479Z,15.57
2023-05-16T08:13:19.481Z,15.63
2023-05-16T08:15:49.015Z,15.73
2023-05-16T08:18:17.983Z,15.82
2023-05-16T08:20:50.233Z,15.86
2023-05-16T08:23:18.222Z,15.98
2023-05-16T08:25:46.273Z,16.13
2023-05-16T08:28:14.280Z,16.20
2023-05-16T08:30:43.382Z,16.28
2023-05-16T08:33:13.704Z,16.32
2023-05-16T08:35:43.773Z,16.33
2023-05-16T08:38:11.808Z,16.40
2023-05-16T08:40:41.511Z,16.40
2023-05-16T08:43:09.854Z,16.42
2023-05-16T08:45:37.652Z,16.46
2023-05-16T08:48:10.096Z,16.51
2023-05-16T08:50:39.906Z,16.51
2023-05-16T08:53:10.594Z,16.61
2023-05-16T08:55:39.644Z,16.64
2023-05-16T08:58:10.323Z,16.73
2023-05-16T09:00:38.447Z,16.82
2023-05-16T09:03:07.458Z,16.93
2023-05-16T09:05:36.065Z,17.05
2023-05-16T09:08:06.701Z,17.15
2023-05-16T09:10:34.729Z,17.34
2023-05-16T09:13:02.714Z,17.50
2023-05-16T09:15:33.974Z,17.65
2023-05-16T09:18:02.749Z,17.73
2023-05-16T09:20:31.393Z,17.79
2023-05-16T09:23:00.987Z,17.85
2023-05-16T09:25:32.665Z,17.96
2023-05-16T09:28:03.347Z,18.06
2023-05-16T09:30:34.021Z,18.25
2023-05-16T09:33:02.530Z,18.43
2023-05-16T09:35:43.866Z,18.63
2023-05-16T09:38:16.915Z,18.82
2023-05-16T09:40:46.804Z,18.88
2023-05-16T09:43:18.085Z,18.78
2023-05-16T09:45:50.442Z,18.73
2023-05-16T09:48:19.009Z,18.73
2023-05-16T09:50:53.058Z,18.83
2023-05-16T09:53:28.403Z,18.90
2023-05-16T09:56:05.392Z,19.12
2023-05-16T09:58:35.006Z,19.24
2023-05-16T10:01:03.828Z,19.39
2023-05-16T10:03:32.294Z,19.42
2023-05-16T10:06:01.889Z,19.48
2023-05-16T10:08:36.214Z,19.47
2023-05-16T10:11:06.605Z,19.46
2023-05-16T10:13:36.124Z,19.59
2023-05-16T10:16:09.158Z,19.60
2023-05-16T10:18:39.538Z,19.72
2023-05-16T10:21:12.009Z,19.83
2023-05-16T10:23:43.202Z,19.88
2023-05-16T10:26:14.846Z,19.91
2023-05-16T10:28:43.213Z,20.01
2023-05-16T10:31:12.299Z,19.94
2023-05-16T10:33:40.865Z,19.98
2023-05-16T10:36:09.976Z,19.91
2023-05-16T10:38:38.823Z,19.87
2023-05-16T10:41:08.250Z,19.92
2023-05-16T10:43:37.673Z,20.03
2023-05-16T10:46:09.767Z,20.15
2023-05-16T10:48:40.181Z,20.21
2023-05-16T10:51:37.790Z,20.25
2023-05-16T10:54:12.578Z,20.25
2023-05-16T10:56:40.751Z,20.06
2023-05-16T11:02:04.283Z,20.32
2023-05-16T11:04:47.612Z,20.21
2023-05-16T11:07:17.743Z,20.28
2023-05-16T11:09:46.195Z,20.29
2023-05-16T11:12:15.795Z,20.45
2023-05-16T11:14:45.281Z,20.58
2023-05-16T11:17:16.221Z,20.79
2023-05-16T11:19:46.329Z,20.84
2023-05-16T11:22:23.337Z,21.03
2023-05-16T11:24:57.302Z,21.24
2023-05-16T11:27:28.031Z,21.20
2023-05-16T11:30:01.996Z,21.15
2023-05-16T11:32:35.358Z,21.13
2023-05-16T11:35:04.056Z,21.27
2023-05-16T11:37:32.707Z,21.24
2023-05-16T11:40:01.952Z,21.14
2023-05-16T11:42:34.065Z,20.98
2023-05-16T11:45:07.093Z,20.90
2023-05-16T11:47:38.177Z,20.89
2023-05-16T11:50:07.890Z,20.84
2023-05-16T11:52:36.007Z,20.95
2023-05-16T11:55:06.425Z,20.92
2023-05-16T11:57:34.836Z,21.00
2023-05-16T12:00:06.561Z,21.04
2023-05-16T12:02:36.286Z,21.04
2023-05-16T12:05:10.071Z,20.87
2023-05-16T12:07:38.830Z,20.85
2023-05-16T12:10:09.010Z,20.74
2023-05-16T12:12:37.532Z,20.68
2023-05-16T12:15:07.212Z,20.71
2023-05-16T12:17:39.442Z,20.74
2023-05-16T12:20:11.811Z,20.83
2023-05-16T12:22:41.192Z,20.79
2023-05-16T12:25:28.665Z,20.80
2023-05-16T12:27:59.006Z,20.86
2023-05-16T12:30:29.000Z,20.81
2023-05-16T12:32:59.306Z,20.74
2023-05-16T12:35:31.315Z,20.79
2023-05-16T12:37:59.493Z,20.95
2023-05-16T12:40:30.394Z,21.13
2023-05-16T12:42:58.990Z,21.39
2023-05-16T12:45:29.040Z,21.56
2023-05-16T12:47:58.522Z,21.74
2023-05-16T12:50:28.377Z,21.89
2023-05-16T12:53:00.650Z,22.00
2023-05-16T12:55:28.714Z,21.80
2023-05-16T12:57:57.801Z,21.91
2023-05-16T13:00:26.726Z,22.08
2023-05-16T13:02:55.218Z,22.07
2023-05-16T13:05:24.648Z,22.00
2023-05-16T13:07:52.862Z,22.09
2023-05-16T13:10:20.663Z,22.02
2023-05-16T13:12:48.848Z,21.84
2023-05-16T13:15:16.921Z,21.30
2023-05-16T13:17:45.299Z,20.76
2023-05-16T13:20:15.155Z,20.55
2023-05-16T13:22:46.515Z,20.17
2023-05-16T13:25:14.515Z,20.06
2023-05-16T13:27:42.523Z,19.87
2023-05-16T13:30:16.018Z,19.73
2023-05-16T13:32:44.036Z,19.50
2023-05-16T13:35:12.378Z,19.36
2023-05-16T13:37:41.544Z,19.39
2023-05-16T13:40:12.180Z,19.36
2023-05-16T13:42:40.165Z,19.23
2023-05-16T13:45:09.097Z,19.19
2023-05-16T13:47:37.598Z,19.16
2023-05-16T13:50:10.131Z,19.12
2023-05-16T13:52:38.660Z,19.13
2023-05-16T13:55:06.891Z,19.06
2023-05-16T13:57:36.744Z,18.99
2023-05-16T14:00:43.639Z,18.95
2023-05-16T14:03:00.476Z,18.93
2023-05-16T14:05:28.463Z,18.83
2023-05-16T14:07:56.584Z,18.81
2023-05-16T14:10:25.366Z,18.56
2023-05-16T14:12:54.772Z,18.31
2023-05-16T14:15:22.745Z,18.27
2023-05-16T14:17:51.027Z,18.13
2023-05-16T14:20:18.917Z,18.02
2023-05-16T14:22:46.895Z,17.96
2023-05-16T14:25:14.891Z,17.93
2023-05-16T14:27:42.896Z,18.00
2023-05-16T14:30:13.382Z,17.93
2023-05-16T14:32:41.606Z,18.00
2023-05-16T14:35:10.629Z,17.88
2023-05-16T14:37:38.801Z,17.73
2023-05-16T14:40:09.211Z,17.50
2023-05-16T14:42:37.414Z,17.36
2023-05-16T14:45:06.289Z,17.22
2023-05-16T14:47:35.672Z,17.14
2023-05-16T14:50:03.782Z,17.14
2023-05-16T14:52:31.824Z,17.12
2023-05-16T14:54:59.820Z,17.13
2023-05-16T14:57:32.379Z,17.03
2023-05-16T15:00:00.380Z,17.03
2023-05-16T15:02:28.433Z,17.07
2023-05-16T15:04:57.908Z,17.06
2023-05-16T15:07:48.852Z,16.91
2023-05-16T15:10:16.902Z,16.80
2023-05-16T15:12:44.877Z,16.52
2023-05-16T15:15:14.926Z,16.14
2023-05-16T15:17:44.546Z,15.80
2023-05-16T15:20:14.337Z,15.02
2023-05-16T15:22:43.040Z,14.55
2023-05-16T15:25:11.749Z,14.34
2023-05-16T15:27:40.142Z,14.14
2023-05-16T15:30:08.809Z,14.08
2023-05-16T15:32:36.927Z,14.10
2023-05-16T15:35:20.432Z,14.11
2023-05-16T15:38:16.352Z,14.08
2023-05-16T15:40:52.656Z,14.03
2023-05-16T15:43:33.639Z,13.96
2023-05-16T15:46:09.011Z,14.03
2023-05-16T15:48:37.181Z,13.99
2023-05-16T15:51:07.036Z,13.96
2023-05-16T15:53:34.993Z,14.02
2023-05-16T15:56:03.064Z,14.04
2023-05-16T15:58:31.148Z,14.10
2023-05-16T16:01:00.857Z,14.11
2023-05-16T16:03:28.978Z,14.06
2023-05-16T16:05:58.994Z,14.09
2023-05-16T16:08:28.354Z,14.03
2023-05-16T16:10:56.742Z,13.99
2023-05-16T16:13:25.442Z,14.02
2023-05-16T16:15:53.423Z,14.05
2023-05-16T16:18:21.510Z,14.01
2023-05-16T16:20:49.659Z,13.97
2023-05-16T16:23:17.842Z,13.95
2023-05-16T16:25:47.506Z,14.03
2023-05-16T16:28:15.895Z,13.87
2023-05-16T16:30:44.850Z,13.80
2023-05-16T16:33:12.858Z,13.72
2023-05-16T16:35:44.538Z,13.62
2023-05-16T16:38:12.810Z,13.42
2023-05-16T16:40:41.860Z,13.47
2023-05-16T16:43:11.383Z,13.57
2023-05-16T16:45:39.614Z,13.61
2023-05-16T16:48:09.275Z,13.60
2023-05-16T16:50:40.418Z,13.55
2023-05-16T16:53:08.739Z,13.40
2023-05-16T16:55:40.591Z,13.26
2023-05-16T16:58:08.947Z,13.01
2023-05-16T17:00:38.458Z,12.90
2023-05-16T17:03:07.176Z,12.96
2023-05-16T17:05:35.284Z,13.05
2023-05-16T17:08:04.534Z,13.09
2023-05-16T17:10:32.909Z,13.14
2023-05-16T17:13:07.162Z,13.14
2023-05-16T17:15:35.794Z,13.18
2023-05-16T17:18:07.405Z,13.12
2023-05-16T17:20:36.114Z,13.12
2023-05-16T17:23:05.514Z,13.14
2023-05-16T17:25:33.631Z,13.18
2023-05-16T17:28:01.666Z,13.27
2023-05-16T17:30:29.712Z,13.26
2023-05-16T17:32:57.854Z,13.27
2023-05-16T17:35:30.005Z,13.30
2023-05-16T17:37:59.194Z,13.27
2023-05-16T17:40:27.467Z,13.23
2023-05-16T17:42:57.208Z,13.16
2023-05-16T17:45:26.214Z,13.14
2023-05-16T17:47:57.254Z,13.02
2023-05-16T17:50:26.124Z,13.01
2023-05-16T17:52:55.683Z,13.01
2023-05-16T17:55:30.838Z,13.01
2023-05-16T17:57:58.920Z,13.04
2023-05-16T18:00:27.021Z,13.05
2023-05-16T18:02:55.256Z,13.08
2023-05-16T18:05:23.613Z,13.06
2023-05-16T18:07:51.813Z,13.11
2023-05-16T18:10:21.456Z,13.11
2023-05-16T18:12:49.851Z,13.12
2023-05-16T18:15:18.618Z,13.15
2023-05-16T18:17:47.118Z,13.15
2023-05-16T18:20:23.955Z,13.07
2023-05-16T18:22:53.257Z,13.03
2023-05-16T18:25:23.128Z,12.97
2023-05-16T18:27:51.275Z,12.97
2023-05-16T18:30:19.738Z,12.98
2023-05-16T18:32:47.570Z,12.91
2023-05-16T18:35:15.751Z,12.79
2023-05-16T18:37:49.124Z,12.82
2023-05-16T18:40:18.126Z,12.84
2023-05-16T18:43:09.582Z,12.84
2023-05-16T18:45:39.951Z,12.96
2023-05-16T18:48:12.596Z,12.99
2023-05-16T18:50:40.969Z,12.90
2023-05-16T18:53:15.052Z,12.87
2023-05-16T18:55:44.384Z,12.85
2023-05-16T18:58:13.810Z,12.85
2023-05-16T19:00:41.792Z,12.79
2023-05-16T19:03:10.119Z,12.77
2023-05-16T19:05:38.770Z,12.77
2023-05-16T19:08:07.594Z,12.79
2023-05-16T19:10:38.466Z,12.77
2023-05-16T19:13:08.285Z,12.79
2023-05-16T19:15:38.823Z,12.78
2023-05-16T19:18:10.173Z,12.75
2023-05-16T19:20:40.820Z,12.74
2023-05-16T19:23:08.873Z,12.73
2023-05-16T19:25:36.971Z,12.73
2023-05-16T19:28:05.634Z,12.70
2023-05-16T19:30:33.820Z,12.67
2023-05-16T19:33:03.448Z,12.65
2023-05-16T19:35:31.942Z,12.65
2023-05-16T19:38:00.469Z,12.64
2023-05-16T19:40:32.594Z,12.55
2023-05-16T19:43:00.606Z,12.50
2023-05-16T19:45:28.919Z,12.53
2023-05-16T19:47:59.191Z,12.55
2023-05-16T19:50:28.939Z,12.52
2023-05-16T19:52:56.998Z,12.51
2023-05-16T19:55:26.992Z,12.46
2023-05-16T19:57:55.229Z,12.39
2023-05-16T20:00:23.379Z,12.35
2023-05-16T20:02:51.517Z,12.39
2023-05-16T20:05:22.757Z,12.36
2023-05-16T20:07:54.580Z,12.32
2023-05-16T20:10:22.724Z,12.25
2023-05-16T20:12:51.434Z,12.14
2023-05-16T20:15:19.450Z,12.11
2023-05-16T20:17:47.509Z,12.14
2023-05-16T20:20:15.606Z,12.13
2023-05-16T20:22:44.078Z,12.12
2023-05-16T20:25:13.465Z,12.13
2023-05-16T20:27:41.563Z,12.19
2023-05-16T20:30:10.850Z,12.23
2023-05-16T20:32:38.863Z,12.26
2023-05-16T20:35:10.153Z,12.28
2023-05-16T20:37:38.561Z,12.30
2023-05-16T20:40:08.031Z,12.22
2023-05-16T20:42:37.609Z,12.19
2023-05-16T20:45:06.549Z,12.21
2023-05-16T20:47:34.639Z,12.22
2023-05-16T20:50:02.748Z,12.24
2023-05-16T20:52:30.909Z,12.23
2023-05-16T20:55:01.281Z,12.07
2023-05-16T20:57:29.420Z,12.09
2023-05-16T20:59:58.765Z,12.10
2023-05-16T21:02:26.899Z,12.09
2023-05-16T21:04:56.036Z,12.12
2023-05-16T21:07:24.201Z,12.19
2023-05-16T21:09:52.176Z,12.16
2023-05-16T21:12:20.153Z,12.17
2023-05-16T21:14:48.200Z,12.22
2023-05-16T21:17:17.641Z,12.22
2023-05-16T21:19:45.758Z,12.17
2023-05-16T21:22:13.803Z,12.17
2023-05-16T21:24:41.842Z,12.13
2023-05-16T21:27:09.903Z,12.13
2023-05-16T21:29:38.010Z,12.10
2023-05-16T21:32:06.608Z,12.12
2023-05-16T21:34:36.064Z,12.13
2023-05-16T21:37:04.100Z,12.20
2023-05-16T21:39:32.261Z,12.11
2023-05-16T21:42:00.884Z,12.13
2023-05-16T21:44:28.876Z,12.11
2023-05-16T21:46:56.837Z,12.12
2023-05-16T21:49:24.864Z,12.09
2023-05-16T21:51:54.212Z,11.92
2023-05-16T21:54:22.302Z,11.94
2023-05-16T21:56:50.314Z,11.97
2023-05-16T21:59:18.314Z,11.99
2023-05-16T22:01:46.318Z,11.93
2023-05-16T22:04:14.496Z,11.87
2023-05-16T22:06:42.562Z,11.84
2023-05-16T22:09:12.424Z,11.87
2023-05-16T22:11:40.367Z,11.92
2023-05-16T22:14:08.397Z,11.88
2023-05-16T22:16:36.346Z,11.87
2023-05-16T22:19:04.386Z,11.89
2023-05-16T22:21:32.346Z,11.93
2023-05-16T22:24:00.253Z,11.98
2023-05-16T22:26:29.582Z,11.96
2023-05-16T22:28:57.529Z,11.97
2023-05-16T22:31:25.530Z,11.93
2023-05-16T22:33:53.648Z,11.88
2023-05-16T22:36:21.639Z,11.89
2023-05-16T22:38:49.589Z,11.91
2023-05-16T22:41:17.580Z,11.89
2023-05-16T22:43:46.910Z,11.86
2023-05-16T22:46:15.341Z,11.84
2023-05-16T22:48:43.328Z,11.82
2023-05-16T22:51:11.331Z,11.82
2023-05-16T22:53:39.267Z,11.78
2023-05-16T22:56:07.869Z,11.78
2023-05-16T22:58:35.568Z,11.72
2023-05-16T23:01:05.010Z,11.69
2023-05-16T23:03:34.004Z,11.70
2023-05-16T23:06:02.269Z,11.79
2023-05-16T23:08:30.174Z,11.85
2023-05-16T23:10:58.126Z,11.86
2023-05-16T23:13:26.044Z,11.83
2023-05-16T23:15:53.976Z,11.73
2023-05-16T23:18:23.356Z,11.58
2023-05-16T23:20:51.337Z,11.59
2023-05-16T23:23:19.230Z,11.57
2023-05-16T23:25:48.693Z,11.55
2023-05-16T23:28:16.638Z,11.58
2023-05-16T23:30:44.554Z,11.55
2023-05-16T23:33:12.977Z,11.34
2023-05-16T23:35:42.425Z,11.10
2023-05-16T23:38:10.369Z,10.78
2023-05-16T23:40:38.256Z,10.38
2023-05-16T23:43:06.669Z,9.96
2023-05-16T23:45:35.042Z,9.63
2023-05-16T23:48:03.699Z,9.41
2023-05-16T23:50:32.232Z,9.15
2023-05-16T23:53:04.136Z,9.08
2023-05-16T23:55:32.119Z,8.84
2023-05-16T23:58:00.114Z,8.56
